createdAt,value
2023-05-10T00:01:21.671Z,13.1
2023-05-10T00:11:28.842Z,13.1
2023-05-10T00:17:21.674Z,13
2023-05-10T00:22:21.673Z,13.1
2023-05-10T00:27:28.555Z,13.1
2023-05-10T00:32:29.202Z,13.1
2023-05-10T00:38:21.675Z,13.2
2023-05-10T00:43:28.995Z,13.3
2023-05-10T00:49:21.726Z,13.2
2023-05-10T00:59:29.005Z,13.2
2023-05-10T01:05:21.837Z,13.1
2023-05-10T01:10:21.672Z,13.2
2023-05-10T01:15:21.771Z,13.1
2023-05-10T01:20:28.501Z,13.1
2023-05-10T01:25:28.800Z,13.2
2023-05-10T01:30:28.880Z,13.1
2023-05-10T01:35:29.033Z,13.1
2023-05-10T01:41:21.671Z,13.2
2023-05-10T01:46:21.755Z,13.2
2023-05-10T01:51:21.732Z,13.2
2023-05-10T01:56:28.454Z,13.2
2023-05-10T02:01:28.818Z,13.2
2023-05-10T02:06:28.911Z,13.1
2023-05-10T02:12:21.664Z,13.1
2023-05-10T02:17:21.679Z,13
2023-05-10T02:22:21.710Z,13
2023-05-10T02:27:28.474Z,13
2023-05-10T02:32:28.596Z,12.8
2023-05-10T02:37:28.882Z,12.9
2023-05-10T02:48:21.692Z,12.7
2023-05-10T02:53:22.006Z,12.8
2023-05-10T02:58:28.586Z,12.8
2023-05-10T03:04:21.733Z,12.8
2023-05-10T03:09:21.697Z,12.9
2023-05-10T03:14:29.155Z,12.9
2023-05-10T03:19:29.241Z,12.9
2023-05-10T03:25:21.702Z,13
2023-05-10T03:30:28.508Z,13
2023-05-10T03:35:28.553Z,13
2023-05-10T03:40:29.150Z,13
2023-05-10T03:46:21.718Z,13.1
2023-05-10T03:51:21.705Z,13.1
2023-05-10T03:56:28.490Z,13.1
2023-05-10T04:01:28.612Z,13
2023-05-10T04:11:29.119Z,13
2023-05-10T04:16:34.940Z,13.1
2023-05-10T04:22:21.724Z,13
2023-05-10T04:27:28.945Z,13.1
2023-05-10T04:33:21.709Z,13.1
2023-05-10T04:38:21.750Z,13.1
2023-05-10T04:43:21.728Z,13.1
2023-05-10T04:48:28.723Z,13.1
2023-05-10T04:53:29.235Z,13
2023-05-10T04:59:21.783Z,13.1
2023-05-10T05:04:29.045Z,13.1
2023-05-10T05:10:21.725Z,13
2023-05-10T05:15:21.711Z,13.1
2023-05-10T05:20:29.206Z,13.2
2023-05-10T05:26:21.769Z,13.1
2023-05-10T05:31:28.629Z,13
2023-05-10T05:41:28.965Z,13.1
2023-05-10T05:47:21.778Z,13
2023-05-10T05:52:28.744Z,13.1
2023-05-10T06:03:28.611Z,13.2
2023-05-10T06:08:28.577Z,13.2
2023-05-10T06:13:28.908Z,13.1
2023-05-10T06:18:29.443Z,13.2
2023-05-10T06:24:21.719Z,13.3
2023-05-10T06:29:21.725Z,13.3
2023-05-10T06:34:21.792Z,13.4
2023-05-10T06:39:28.625Z,13.5
2023-05-10T06:44:28.648Z,13.6
2023-05-10T06:49:28.637Z,13.6
2023-05-10T06:55:21.750Z,13.8
2023-05-10T07:00:21.973Z,14
2023-05-10T07:05:29.312Z,14.1
2023-05-10T07:10:29.303Z,14.1
2023-05-10T07:15:29.337Z,14.1
2023-05-10T07:21:21.858Z,14.1
2023-05-10T07:26:28.877Z,13.9
2023-05-10T07:32:21.775Z,14
2023-05-10T07:37:30.312Z,14.1
2023-05-10T07:48:21.750Z,14
2023-05-10T07:53:21.781Z,14
2023-05-10T07:58:28.678Z,14.1
2023-05-10T08:03:28.879Z,14
2023-05-10T08:08:29.305Z,14
2023-05-10T08:14:21.812Z,14
2023-05-10T08:19:21.827Z,14
2023-05-10T08:29:32.852Z,14.1
2023-05-10T08:35:21.750Z,14.1
2023-05-10T08:40:28.807Z,14.3
2023-05-10T08:45:28.912Z,14.6
2023-05-10T08:50:28.993Z,14.9
2023-05-10T08:55:29.440Z,15
2023-05-10T09:01:21.914Z,14.7
2023-05-10T09:06:28.681Z,14.8
2023-05-10T09:12:21.748Z,14.7
2023-05-10T09:17:21.786Z,14.7
2023-05-10T09:22:28.752Z,14.9
2023-05-10T09:27:28.892Z,15.1
2023-05-10T09:32:29.092Z,15.6
2023-05-10T09:38:21.768Z,15.4
2023-05-10T09:43:21.832Z,15.1
2023-05-10T09:48:28.543Z,15.4
2023-05-10T09:53:29.148Z,15.2
2023-05-10T09:59:21.761Z,14.8
2023-05-10T10:04:21.813Z,14.3
2023-05-10T10:09:29.270Z,14.1
2023-05-10T10:14:29.376Z,14.3
2023-05-10T10:20:21.808Z,14.4
2023-05-10T10:25:29.182Z,14.8
2023-05-10T10:30:29.357Z,15.2
2023-05-10T10:41:21.794Z,15.5
2023-05-10T10:52:21.768Z,15.5
2023-05-10T10:57:21.806Z,15.7
2023-05-10T11:02:21.798Z,16.1
2023-05-10T11:07:29.010Z,16.8
2023-05-10T11:12:29.318Z,16.8
2023-05-10T11:17:29.407Z,16.5
2023-05-10T11:23:21.791Z,16.1
2023-05-10T11:28:21.772Z,15.8
2023-05-10T11:33:21.783Z,15.9
2023-05-10T11:38:21.825Z,16.1
2023-05-10T11:43:29.160Z,16.2
2023-05-10T11:49:21.801Z,16.4
2023-05-10T11:54:28.577Z,16.7
2023-05-10T12:00:21.792Z,16.7
2023-05-10T12:05:29.063Z,16.9
2023-05-10T12:10:29.073Z,17.3
2023-05-10T12:16:21.858Z,17.6
2023-05-10T12:31:21.874Z,17.9
2023-05-10T12:36:29.093Z,17.9
2023-05-10T12:42:21.794Z,18.1
2023-05-10T12:47:28.611Z,18.3
2023-05-10T12:52:29.406Z,18.6
2023-05-10T13:03:28.585Z,17.4
2023-05-10T13:08:28.586Z,17
2023-05-10T13:13:29.042Z,17.5
2023-05-10T13:19:21.806Z,16.5
2023-05-10T13:24:24.144Z,17
2023-05-10T13:29:28.839Z,16.2
2023-05-10T13:34:29.198Z,17.1
2023-05-10T13:39:29.277Z,16.7
2023-05-10T13:45:21.837Z,16.7
2023-05-10T13:50:21.830Z,16.7
2023-05-10T13:55:21.886Z,17.2
2023-05-10T14:00:29.342Z,18.1
2023-05-10T14:11:23.912Z,17.9
2023-05-10T14:16:27.962Z,17.4
2023-05-10T14:21:28.668Z,16.8
2023-05-10T14:26:28.821Z,17.2
2023-05-10T14:32:21.832Z,17.3
2023-05-10T14:37:21.849Z,17
2023-05-10T14:42:29.367Z,16.8
2023-05-10T14:48:21.827Z,16.6
2023-05-10T14:53:21.855Z,16.7
2023-05-10T14:58:28.634Z,16.3
2023-05-10T15:03:29.357Z,16.8
2023-05-10T15:09:21.907Z,17.3
2023-05-10T15:14:28.635Z,17.3
2023-05-10T15:19:29.444Z,17
2023-05-10T15:25:21.893Z,16.8
2023-05-10T15:30:21.917Z,16.8
2023-05-10T15:35:29.287Z,16.7
2023-05-10T15:41:21.978Z,16.4
2023-05-10T15:46:28.643Z,16.1
2023-05-10T15:51:28.628Z,16.3
2023-05-10T15:56:28.676Z,16.3
2023-05-10T16:02:21.927Z,16.7
2023-05-10T16:07:21.860Z,17.2
2023-05-10T16:12:21.858Z,17.2
2023-05-10T16:17:21.953Z,17.1
2023-05-10T16:22:28.719Z,17
2023-05-10T16:28:21.851Z,16.9
2023-05-10T16:33:21.934Z,16.8
2023-05-10T16:38:28.635Z,16.5
2023-05-10T16:43:28.709Z,16.2
2023-05-10T16:48:29.103Z,16.3
2023-05-10T16:54:21.878Z,16.5
2023-05-10T16:59:28.657Z,16.4
2023-05-10T17:04:29.449Z,16.1
2023-05-10T17:10:21.965Z,16.2
2023-05-10T17:15:28.755Z,16.2
2023-05-10T17:20:29.427Z,16.3
2023-05-10T17:26:21.946Z,16.5
2023-05-10T17:32:21.936Z,16.4
2023-05-10T17:37:21.929Z,16.5
2023-05-10T17:42:21.884Z,16.4
2023-05-10T17:47:21.959Z,16.4
2023-05-10T17:52:30.321Z,16.3
2023-05-10T17:58:21.884Z,16.3
2023-05-10T18:03:21.889Z,16.2
2023-05-10T18:08:29.489Z,16.1
2023-05-10T18:13:29.654Z,16.1
2023-05-10T18:19:21.900Z,16
2023-05-10T18:24:38.257Z,15.9
2023-05-10T18:29:29.191Z,15.8
2023-05-10T18:35:22.294Z,15.7
2023-05-10T18:40:29.159Z,15.7
2023-05-10T18:46:21.894Z,15.6
2023-05-10T18:51:21.896Z,15.4
2023-05-10T18:56:21.894Z,15.4
2023-05-10T19:01:28.718Z,15.2
2023-05-10T19:06:29.056Z,15.1
2023-05-10T19:12:21.921Z,14.9
2023-05-10T19:17:29.812Z,14.7
2023-05-10T19:28:21.973Z,14.5
2023-05-10T19:33:28.697Z,14.3
2023-05-10T19:38:29.141Z,14.2
2023-05-10T19:44:22.845Z,14.2
2023-05-10T19:49:29.248Z,14.1
2023-05-10T19:55:21.907Z,14.1
2023-05-10T20:00:21.981Z,14.1
2023-05-10T20:05:29.218Z,14
2023-05-10T20:10:29.712Z,14
2023-05-10T20:16:23.052Z,14.1
2023-05-10T20:26:29.270Z,13.8
2023-05-10T20:32:21.935Z,13.9
2023-05-10T20:37:21.922Z,13.8
2023-05-10T20:42:21.949Z,13.8
2023-05-10T20:47:29.210Z,13.9
2023-05-10T20:52:29.819Z,13.7
2023-05-10T20:58:21.933Z,13.7
2023-05-10T21:03:21.919Z,13.6
2023-05-10T21:08:29.293Z,13.6
2023-05-10T21:14:21.932Z,13.6
2023-05-10T21:19:28.907Z,13.6
2023-05-10T21:24:28.931Z,13.6
2023-05-10T21:29:29.137Z,13.5
2023-05-10T21:35:21.899Z,13.4
2023-05-10T21:40:21.924Z,13.5
2023-05-10T21:45:21.944Z,13.5
2023-05-10T21:50:28.708Z,13.5
2023-05-10T21:56:21.936Z,13.5
2023-05-10T22:01:21.983Z,13.5
2023-05-10T22:11:29.035Z,13.3
2023-05-10T22:16:29.373Z,13.2
2023-05-10T22:22:21.929Z,13.1
2023-05-10T22:27:21.980Z,13.1
2023-05-10T22:32:22.131Z,13
2023-05-10T22:37:29.225Z,13
2023-05-10T22:43:22.008Z,13
2023-05-10T22:48:29.463Z,13
2023-05-10T22:54:21.940Z,13
2023-05-10T22:59:21.996Z,13.1
2023-05-10T23:04:28.740Z,13
2023-05-10T23:09:30.012Z,13.1
2023-05-10T23:15:21.929Z,13.1
2023-05-10T23:20:22.137Z,13
2023-05-10T23:25:29.473Z,12.7
2023-05-10T23:31:22.095Z,12.6
2023-05-10T23:36:28.705Z,12.6
2023-05-10T23:41:29.522Z,12.5
2023-05-10T23:47:21.959Z,12.6
2023-05-10T23:52:22.012Z,12.4
2023-05-10T23:57:29.026Z,12.6
